Terminal Aerodrome Forecast
Issued by NWS Indianapolis, IN

Home | Current Version | Previous Version | Text Only | Print | Product List | Glossary On
Versions: 1 2 3 4 5 6 7 8 9 10 11 12 13 14 15 16 17 18 19 20 21 22 23 24 25 26 27 28 29 30 31 32 33 34
000
FTUS43 KIND 252300
TAFIND
TAF
KIND 252320Z 2600/2706 04010KT 2SM -PLSN BR OVC005
     FM260100 03015G26KT 2SM -SN BR OVC009
     FM260800 02012G22KT P6SM OVC010
     FM261200 01009KT P6SM OVC020
     FM261500 32008KT P6SM SCT025 BKN150=

USA.gov is the U.S. government's official web portal to all federal, state and local government web resources and services.